EZY1 EGPH-EGCC
Flight info
| Callsign | EZY1 |
|---|---|
| Flight time | 0h 41m |
| Altitude | 25000 |
| Route | GOSAM P600 FENIK L612 BEBNI/N0404F230 L612 LAKEY |
| Aircraft | A20N/M-SDE2E3FGHIRWXY/LB1 |
Departure
| Time | 2026-04-23 14:05 |
|---|---|
| Airport | Edinburgh Airport (EGPH) |
Arrival
| Time | 2026-04-23 14:46 |
|---|---|
| Airport | Manchester Airport (EGCC) |
| Time | Latitude | Longitude | Altitude | Speed | Heading |
|---|---|---|---|---|---|
| 2026-04-23 13:45 | 55.94612 | -3.36626 | 119 ft | 0 kts | 89° |
| 2026-04-23 13:52 | 55.94612 | -3.36647 | 116 ft | 3 kts | 89° |
| 2026-04-23 13:52 | 55.94611 | -3.36679 | 119 ft | 3 kts | 89° |
| 2026-04-23 13:53 | 55.94608 | -3.36708 | 115 ft | 2 kts | 34° |
| 2026-04-23 13:53 | 55.94600 | -3.36714 | 115 ft | 0 kts | 4° |
| 2026-04-23 13:56 | 55.94604 | -3.36716 | 115 ft | 3 kts | 355° |
| 2026-04-23 13:57 | 55.94660 | -3.36725 | 116 ft | 13 kts | 353° |
| 2026-04-23 13:57 | 55.94763 | -3.36758 | 116 ft | 16 kts | 334° |
| 2026-04-23 13:57 | 55.94880 | -3.36792 | 119 ft | 15 kts | 330° |
| 2026-04-23 13:57 | 55.94956 | -3.36804 | 118 ft | 8 kts | 41° |
| 2026-04-23 13:58 | 55.94983 | -3.36731 | 117 ft | 6 kts | 58° |
| 2026-04-23 13:58 | 55.95007 | -3.36658 | 118 ft | 8 kts | 59° |
| 2026-04-23 13:58 | 55.95039 | -3.36564 | 118 ft | 10 kts | 58° |
| 2026-04-23 13:58 | 55.95072 | -3.36451 | 118 ft | 8 kts | 81° |
| 2026-04-23 13:59 | 55.95054 | -3.36391 | 118 ft | 4 kts | 144° |
| 2026-04-23 13:59 | 55.95039 | -3.36385 | 116 ft | 2 kts | 180° |
| 2026-04-23 13:59 | 55.95011 | -3.36403 | 116 ft | 7 kts | 209° |
| 2026-04-23 13:59 | 55.94982 | -3.36488 | 117 ft | 12 kts | 239° |
| 2026-04-23 14:00 | 55.94955 | -3.36569 | 116 ft | 6 kts | 239° |
| 2026-04-23 14:00 | 55.94946 | -3.36599 | 115 ft | 0 kts | 239° |
| 2026-04-23 14:00 | 55.94930 | -3.36646 | 118 ft | 10 kts | 239° |
| 2026-04-23 14:00 | 55.94901 | -3.36787 | 119 ft | 14 kts | 292° |
| 2026-04-23 14:01 | 55.94919 | -3.36920 | 118 ft | 10 kts | 240° |
| 2026-04-23 14:01 | 55.94882 | -3.37026 | 116 ft | 10 kts | 237° |
| 2026-04-23 14:01 | 55.94848 | -3.37125 | 115 ft | 9 kts | 239° |
| 2026-04-23 14:01 | 55.94818 | -3.37215 | 118 ft | 8 kts | 239° |
| 2026-04-23 14:02 | 55.94786 | -3.37309 | 116 ft | 10 kts | 239° |
| 2026-04-23 14:02 | 55.94738 | -3.37452 | 118 ft | 21 kts | 239° |
| 2026-04-23 14:02 | 55.94640 | -3.37734 | 115 ft | 27 kts | 238° |
| 2026-04-23 14:02 | 55.94545 | -3.38017 | 116 ft | 26 kts | 239° |
| 2026-04-23 14:03 | 55.94445 | -3.38315 | 117 ft | 30 kts | 239° |
| 2026-04-23 14:03 | 55.94376 | -3.38518 | 116 ft | 0 kts | 239° |
| 2026-04-23 14:03 | 55.94371 | -3.38535 | 117 ft | 5 kts | 239° |
| 2026-04-23 14:03 | 55.94333 | -3.38645 | 117 ft | 17 kts | 239° |
| 2026-04-23 14:04 | 55.94299 | -3.38877 | 116 ft | 22 kts | 319° |
| 2026-04-23 14:04 | 55.94419 | -3.38960 | 117 ft | 8 kts | 37° |
| 2026-04-23 14:04 | 55.94480 | -3.38780 | 113 ft | 47 kts | 59° |
| 2026-04-23 14:04 | 55.94786 | -3.37865 | 118 ft | 125 kts | 58° |
| 2026-04-23 14:05 | 55.95363 | -3.36176 | 146 ft | 185 kts | 59° |
| 2026-04-23 14:05 | 55.96006 | -3.34289 | 1084 ft | 175 kts | 58° |
| 2026-04-23 14:05 | 55.96799 | -3.32586 | 1851 ft | 187 kts | 41° |
| 2026-04-23 14:05 | 55.97898 | -3.31117 | 2436 ft | 207 kts | 36° |
| 2026-04-23 14:06 | 55.99100 | -3.29645 | 3194 ft | 214 kts | 33° |
| 2026-04-23 14:06 | 56.00019 | -3.28855 | 3477 ft | 230 kts | 17° |
| 2026-04-23 14:06 | 56.01645 | -3.28899 | 4013 ft | 242 kts | 338° |
| 2026-04-23 14:06 | 56.02931 | -3.30770 | 4718 ft | 243 kts | 299° |
| 2026-04-23 14:07 | 56.03301 | -3.33642 | 5488 ft | 239 kts | 264° |
| 2026-04-23 14:07 | 56.02484 | -3.40432 | 6853 ft | 244 kts | 253° |
| 2026-04-23 14:07 | 56.02173 | -3.42452 | 6881 ft | 257 kts | 253° |
| 2026-04-23 14:08 | 56.01685 | -3.45650 | 6882 ft | 274 kts | 253° |
| 2026-04-23 14:08 | 56.01176 | -3.49079 | 7203 ft | 299 kts | 254° |
| 2026-04-23 14:08 | 56.00627 | -3.52828 | 7555 ft | 323 kts | 254° |
| 2026-04-23 14:08 | 56.00042 | -3.56859 | 7922 ft | 346 kts | 254° |
| 2026-04-23 14:09 | 55.99420 | -3.61134 | 8272 ft | 365 kts | 254° |
| 2026-04-23 14:09 | 55.98766 | -3.65599 | 8829 ft | 376 kts | 254° |
| 2026-04-23 14:09 | 55.98109 | -3.70076 | 9545 ft | 380 kts | 254° |
| 2026-04-23 14:09 | 55.97424 | -3.74731 | 10266 ft | 385 kts | 254° |
| 2026-04-23 14:10 | 55.96744 | -3.79325 | 10932 ft | 390 kts | 254° |
| 2026-04-23 14:10 | 55.96046 | -3.84028 | 11617 ft | 393 kts | 254° |
| 2026-04-23 14:10 | 55.95341 | -3.88773 | 12328 ft | 398 kts | 254° |
| 2026-04-23 14:10 | 55.94624 | -3.93581 | 13004 ft | 402 kts | 254° |
| 2026-04-23 14:11 | 55.93760 | -3.98361 | 13622 ft | 408 kts | 246° |
| 2026-04-23 14:11 | 55.92368 | -4.02791 | 14257 ft | 412 kts | 233° |
| 2026-04-23 14:11 | 55.90392 | -4.06524 | 14816 ft | 417 kts | 219° |
| 2026-04-23 14:11 | 55.88024 | -4.09554 | 15419 ft | 420 kts | 213° |
| 2026-04-23 14:12 | 55.85573 | -4.12391 | 16053 ft | 422 kts | 212° |
| 2026-04-23 14:12 | 55.83080 | -4.15242 | 16633 ft | 427 kts | 212° |
| 2026-04-23 14:12 | 55.80574 | -4.18115 | 17195 ft | 431 kts | 212° |
| 2026-04-23 14:12 | 55.78057 | -4.21050 | 17816 ft | 434 kts | 213° |
| 2026-04-23 14:13 | 55.75549 | -4.24089 | 18363 ft | 439 kts | 214° |
| 2026-04-23 14:13 | 55.73032 | -4.27189 | 18897 ft | 442 kts | 213° |
| 2026-04-23 14:13 | 55.70258 | -4.29522 | 19433 ft | 444 kts | 196° |
| 2026-04-23 14:13 | 55.67197 | -4.30327 | 19836 ft | 448 kts | 179° |
| 2026-04-23 14:14 | 55.64125 | -4.29489 | 20382 ft | 449 kts | 162° |
| 2026-04-23 14:14 | 55.61306 | -4.27108 | 20914 ft | 452 kts | 146° |
| 2026-04-23 14:14 | 55.58945 | -4.23408 | 21366 ft | 456 kts | 132° |
| 2026-04-23 14:14 | 55.56880 | -4.19161 | 21978 ft | 456 kts | 131° |
| 2026-04-23 14:15 | 55.54713 | -4.15027 | 22370 ft | 462 kts | 136° |
| 2026-04-23 14:15 | 55.52330 | -4.11313 | 22840 ft | 464 kts | 142° |
| 2026-04-23 14:15 | 55.49719 | -4.07972 | 23423 ft | 465 kts | 147° |
| 2026-04-23 14:15 | 55.46964 | -4.04932 | 23764 ft | 470 kts | 149° |
| 2026-04-23 14:16 | 55.44106 | -4.02077 | 24172 ft | 474 kts | 151° |
| 2026-04-23 14:16 | 55.41207 | -3.99320 | 24699 ft | 473 kts | 152° |
| 2026-04-23 14:16 | 55.38289 | -3.96587 | 25049 ft | 477 kts | 152° |
| 2026-04-23 14:16 | 55.35340 | -3.93820 | 25313 ft | 482 kts | 152° |
| 2026-04-23 14:17 | 55.32397 | -3.91039 | 25704 ft | 478 kts | 152° |
| 2026-04-23 14:17 | 55.29471 | -3.88255 | 25762 ft | 478 kts | 152° |
| 2026-04-23 14:17 | 55.26553 | -3.85465 | 25536 ft | 478 kts | 152° |
| 2026-04-23 14:17 | 55.23619 | -3.82654 | 25464 ft | 483 kts | 151° |
| 2026-04-23 14:18 | 55.20667 | -3.79824 | 25468 ft | 485 kts | 151° |
| 2026-04-23 14:18 | 55.17704 | -3.76988 | 25465 ft | 485 kts | 152° |
| 2026-04-23 14:18 | 55.14745 | -3.74160 | 25465 ft | 485 kts | 152° |
| 2026-04-23 14:18 | 55.11785 | -3.71337 | 25473 ft | 484 kts | 152° |
| 2026-04-23 14:19 | 55.08826 | -3.68522 | 25468 ft | 485 kts | 152° |
| 2026-04-23 14:19 | 55.05864 | -3.65708 | 25472 ft | 485 kts | 152° |
| 2026-04-23 14:19 | 55.02898 | -3.62897 | 25471 ft | 485 kts | 152° |
| 2026-04-23 14:19 | 54.99935 | -3.60093 | 25472 ft | 485 kts | 152° |
| 2026-04-23 14:20 | 54.96975 | -3.57297 | 25470 ft | 484 kts | 152° |
| 2026-04-23 14:20 | 54.94010 | -3.54500 | 25471 ft | 484 kts | 152° |
| 2026-04-23 14:20 | 54.91080 | -3.51743 | 25471 ft | 485 kts | 152° |
| 2026-04-23 14:20 | 54.88079 | -3.48922 | 25474 ft | 484 kts | 152° |
| 2026-04-23 14:21 | 54.85152 | -3.46175 | 25467 ft | 484 kts | 152° |
| 2026-04-23 14:21 | 54.82193 | -3.43403 | 25469 ft | 484 kts | 152° |
| 2026-04-23 14:21 | 54.79226 | -3.40629 | 25463 ft | 484 kts | 152° |
| 2026-04-23 14:21 | 54.76255 | -3.37855 | 25465 ft | 484 kts | 152° |
| 2026-04-23 14:22 | 54.73284 | -3.35087 | 25466 ft | 484 kts | 152° |
| 2026-04-23 14:22 | 54.70251 | -3.32555 | 25465 ft | 484 kts | 156° |
| 2026-04-23 14:22 | 54.67162 | -3.30218 | 25465 ft | 486 kts | 156° |
| 2026-04-23 14:22 | 54.64064 | -3.27914 | 25326 ft | 481 kts | 156° |
| 2026-04-23 14:23 | 54.61024 | -3.25652 | 24932 ft | 470 kts | 156° |
| 2026-04-23 14:23 | 54.58061 | -3.23445 | 24689 ft | 457 kts | 156° |
| 2026-04-23 14:23 | 54.55180 | -3.21299 | 24443 ft | 445 kts | 156° |
| 2026-04-23 14:23 | 54.52376 | -3.19211 | 24200 ft | 434 kts | 156° |
| 2026-04-23 14:24 | 54.49641 | -3.17175 | 23991 ft | 422 kts | 156° |
| 2026-04-23 14:24 | 54.46979 | -3.15195 | 23765 ft | 411 kts | 156° |
| 2026-04-23 14:24 | 54.44389 | -3.13271 | 23560 ft | 400 kts | 156° |
| 2026-04-23 14:24 | 54.41868 | -3.11400 | 23357 ft | 389 kts | 155° |
| 2026-04-23 14:25 | 54.39409 | -3.09578 | 23164 ft | 379 kts | 156° |
| 2026-04-23 14:25 | 54.37020 | -3.07810 | 22984 ft | 369 kts | 156° |
| 2026-04-23 14:25 | 54.34695 | -3.06091 | 22805 ft | 359 kts | 156° |
| 2026-04-23 14:25 | 54.32429 | -3.04418 | 22630 ft | 350 kts | 156° |
| 2026-04-23 14:26 | 54.30227 | -3.02793 | 22463 ft | 340 kts | 156° |
| 2026-04-23 14:26 | 54.28082 | -3.01213 | 22304 ft | 331 kts | 156° |
| 2026-04-23 14:26 | 54.26024 | -2.99698 | 22155 ft | 322 kts | 156° |
| 2026-04-23 14:26 | 54.23997 | -2.98193 | 21990 ft | 313 kts | 152° |
| 2026-04-23 14:27 | 54.22165 | -2.96272 | 21765 ft | 306 kts | 146° |
| 2026-04-23 14:27 | 54.20401 | -2.94284 | 21441 ft | 303 kts | 145° |
| 2026-04-23 14:27 | 54.18633 | -2.92266 | 20753 ft | 308 kts | 145° |
| 2026-04-23 14:27 | 54.16820 | -2.90204 | 19940 ft | 316 kts | 146° |
| 2026-04-23 14:28 | 54.14960 | -2.88102 | 19064 ft | 325 kts | 146° |
| 2026-04-23 14:28 | 54.13051 | -2.85954 | 18083 ft | 333 kts | 147° |
| 2026-04-23 14:28 | 54.11090 | -2.83755 | 16951 ft | 343 kts | 148° |
| 2026-04-23 14:28 | 54.09065 | -2.81490 | 15732 ft | 354 kts | 148° |
| 2026-04-23 14:29 | 54.06967 | -2.79149 | 14455 ft | 367 kts | 149° |
| 2026-04-23 14:29 | 54.04799 | -2.76733 | 13074 ft | 377 kts | 149° |
| 2026-04-23 14:29 | 54.02583 | -2.74265 | 11710 ft | 384 kts | 148° |
| 2026-04-23 14:29 | 54.00346 | -2.71775 | 10595 ft | 383 kts | 148° |
| 2026-04-23 14:30 | 53.98128 | -2.69308 | 9528 ft | 378 kts | 148° |
| 2026-04-23 14:30 | 53.95946 | -2.66885 | 8508 ft | 371 kts | 148° |
| 2026-04-23 14:30 | 53.93825 | -2.64533 | 7836 ft | 356 kts | 148° |
| 2026-04-23 14:30 | 53.91841 | -2.62333 | 7520 ft | 333 kts | 148° |
| 2026-04-23 14:31 | 53.89982 | -2.60272 | 7444 ft | 305 kts | 148° |
| 2026-04-23 14:31 | 53.88215 | -2.58319 | 7461 ft | 313 kts | 148° |
| 2026-04-23 14:31 | 53.86306 | -2.56220 | 7462 ft | 340 kts | 148° |
| 2026-04-23 14:31 | 53.84255 | -2.53963 | 7463 ft | 361 kts | 148° |
| 2026-04-23 14:32 | 53.82101 | -2.51594 | 7460 ft | 373 kts | 148° |
| 2026-04-23 14:32 | 53.79921 | -2.49197 | 7460 ft | 374 kts | 148° |
| 2026-04-23 14:32 | 53.77738 | -2.46799 | 7459 ft | 374 kts | 148° |
| 2026-04-23 14:32 | 53.75558 | -2.44408 | 7466 ft | 375 kts | 148° |
| 2026-04-23 14:33 | 53.73366 | -2.42005 | 7457 ft | 374 kts | 148° |
| 2026-04-23 14:33 | 53.71180 | -2.39616 | 7445 ft | 372 kts | 147° |
| 2026-04-23 14:33 | 53.69028 | -2.37264 | 6973 ft | 364 kts | 147° |
| 2026-04-23 14:33 | 53.66945 | -2.34817 | 6021 ft | 365 kts | 145° |
| 2026-04-23 14:34 | 53.64733 | -2.32764 | 5299 ft | 360 kts | 154° |
| 2026-04-23 14:34 | 53.62500 | -2.30999 | 4821 ft | 348 kts | 155° |
| 2026-04-23 14:34 | 53.60327 | -2.29353 | 4346 ft | 336 kts | 156° |
| 2026-04-23 14:34 | 53.58213 | -2.27821 | 3901 ft | 326 kts | 157° |
| 2026-04-23 14:35 | 53.56170 | -2.26404 | 3450 ft | 317 kts | 158° |
| 2026-04-23 14:35 | 53.54126 | -2.25213 | 3145 ft | 304 kts | 169° |
| 2026-04-23 14:35 | 53.52106 | -2.25524 | 3128 ft | 288 kts | 199° |
| 2026-04-23 14:35 | 53.50568 | -2.27483 | 3101 ft | 275 kts | 233° |
| 2026-04-23 14:36 | 53.49952 | -2.30409 | 3083 ft | 263 kts | 262° |
| 2026-04-23 14:36 | 53.49985 | -2.33382 | 3063 ft | 247 kts | 270° |
| 2026-04-23 14:36 | 53.49709 | -2.36085 | 3042 ft | 229 kts | 240° |
| 2026-04-23 14:36 | 53.48730 | -2.38089 | 3044 ft | 221 kts | 218° |
| 2026-04-23 14:37 | 53.47517 | -2.39690 | 3062 ft | 223 kts | 212° |
| 2026-04-23 14:37 | 53.46239 | -2.41168 | 2925 ft | 223 kts | 210° |
| 2026-04-23 14:37 | 53.44909 | -2.42496 | 2651 ft | 223 kts | 205° |
| 2026-04-23 14:37 | 53.43523 | -2.43687 | 2293 ft | 226 kts | 202° |
| 2026-04-23 14:38 | 53.42091 | -2.44795 | 2029 ft | 224 kts | 197° |
| 2026-04-23 14:38 | 53.40633 | -2.45505 | 2005 ft | 209 kts | 191° |
| 2026-04-23 14:38 | 53.39280 | -2.46042 | 1995 ft | 199 kts | 189° |
| 2026-04-23 14:38 | 53.37916 | -2.46594 | 1989 ft | 199 kts | 189° |
| 2026-04-23 14:39 | 53.36577 | -2.47218 | 1995 ft | 199 kts | 194° |
| 2026-04-23 14:39 | 53.35247 | -2.47856 | 2001 ft | 200 kts | 191° |
| 2026-04-23 14:39 | 53.33917 | -2.48497 | 1987 ft | 198 kts | 192° |
| 2026-04-23 14:39 | 53.32592 | -2.49134 | 1983 ft | 198 kts | 192° |
| 2026-04-23 14:40 | 53.31260 | -2.49765 | 2006 ft | 199 kts | 192° |
| 2026-04-23 14:40 | 53.29935 | -2.50397 | 1992 ft | 198 kts | 191° |
| 2026-04-23 14:40 | 53.28607 | -2.51042 | 1992 ft | 198 kts | 191° |
| 2026-04-23 14:40 | 53.27291 | -2.51672 | 1966 ft | 199 kts | 192° |
| 2026-04-23 14:41 | 53.26016 | -2.52282 | 1943 ft | 181 kts | 192° |
| 2026-04-23 14:41 | 53.24880 | -2.52827 | 1928 ft | 159 kts | 191° |
| 2026-04-23 14:41 | 53.23830 | -2.52958 | 1948 ft | 147 kts | 159° |
| 2026-04-23 14:41 | 53.23185 | -2.51862 | 1875 ft | 138 kts | 97° |
| 2026-04-23 14:42 | 53.23441 | -2.50332 | 1750 ft | 142 kts | 68° |
| 2026-04-23 14:42 | 53.23915 | -2.48871 | 1683 ft | 144 kts | 61° |
| 2026-04-23 14:42 | 53.24539 | -2.47556 | 1878 ft | 144 kts | 53° |
| 2026-04-23 14:42 | 53.25219 | -2.46323 | 1955 ft | 146 kts | 51° |
| 2026-04-23 14:43 | 53.25919 | -2.45090 | 1960 ft | 146 kts | 50° |
| 2026-04-23 14:43 | 53.26629 | -2.43880 | 1968 ft | 145 kts | 49° |
| 2026-04-23 14:43 | 53.27338 | -2.42660 | 1968 ft | 146 kts | 50° |
| 2026-04-23 14:43 | 53.28038 | -2.41440 | 1966 ft | 145 kts | 49° |
| 2026-04-23 14:44 | 53.28780 | -2.40272 | 1724 ft | 149 kts | 53° |
| 2026-04-23 14:44 | 53.29399 | -2.38864 | 1396 ft | 148 kts | 56° |
| 2026-04-23 14:44 | 53.30064 | -2.37595 | 1202 ft | 144 kts | 52° |
| 2026-04-23 14:44 | 53.30694 | -2.36333 | 973 ft | 142 kts | 56° |
| 2026-04-23 14:45 | 53.31309 | -2.35015 | 744 ft | 147 kts | 51° |
| 2026-04-23 14:45 | 53.31918 | -2.33686 | 632 ft | 142 kts | 51° |
| 2026-04-23 14:45 | 53.32568 | -2.32411 | 495 ft | 145 kts | 51° |
| 2026-04-23 14:45 | 53.33198 | -2.31086 | 293 ft | 145 kts | 53° |
| 2026-04-23 14:46 | 53.33794 | -2.29845 | 240 ft | 107 kts | 52° |
| 2026-04-23 14:46 | 53.34124 | -2.29143 | 252 ft | 58 kts | 52° |
| 2026-04-23 14:46 | 53.34320 | -2.28755 | 254 ft | 38 kts | 45° |
| 2026-04-23 14:46 | 53.34513 | -2.28534 | 260 ft | 18 kts | 22° |
| 2026-04-23 14:47 | 53.34618 | -2.28464 | 263 ft | 7 kts | 21° |